sensor_id;sensor_type;location;lat;lon;timestamp;pressure;altitude;pressure_sealevel;temperature;humidity
5883;BME280;2967;51.488;6.618;2023-12-20T00:02:54;101242.38;;;9.50;100.00
5883;BME280;2967;51.488;6.618;2023-12-20T00:07:56;100932.13;;;7.67;100.00
5883;BME280;2967;51.488;6.618;2023-12-20T00:13:03;101242.94;;;9.39;100.00
5883;BME280;2967;51.488;6.618;2023-12-20T00:18:07;101248.22;;;9.39;100.00
5883;BME280;2967;51.488;6.618;2023-12-20T00:23:10;101190.69;;;8.96;100.00
5883;BME280;2967;51.488;6.618;2023-12-20T00:28:13;101252.38;;;9.28;100.00
5883;BME280;2967;51.488;6.618;2023-12-20T00:33:25;101168.88;;;8.76;100.00
5883;BME280;2967;51.488;6.618;2023-12-20T00:38:28;101224.13;;;8.96;100.00
5883;BME280;2967;51.488;6.618;2023-12-20T00:43:31;101278.59;;;9.31;100.00
5883;BME280;2967;51.488;6.618;2023-12-20T00:48:35;101284.41;;;9.20;100.00
5883;BME280;2967;51.488;6.618;2023-12-20T00:53:38;101279.84;;;9.24;100.00
5883;BME280;2967;51.488;6.618;2023-12-20T00:58:41;101284.19;;;9.25;100.00
5883;BME280;2967;51.488;6.618;2023-12-20T01:03:45;101286.97;;;9.39;100.00
5883;BME280;2967;51.488;6.618;2023-12-20T01:08:48;101289.44;;;9.25;100.00
5883;BME280;2967;51.488;6.618;2023-12-20T01:13:51;101232.13;;;8.94;100.00
5883;BME280;2967;51.488;6.618;2023-12-20T01:18:55;101304.34;;;9.43;100.00
5883;BME280;2967;51.488;6.618;2023-12-20T01:23:58;101285.41;;;9.35;100.00
5883;BME280;2967;51.488;6.618;2023-12-20T01:29:01;101290.00;;;9.31;100.00
5883;BME280;2967;51.488;6.618;2023-12-20T01:34:06;101295.50;;;9.44;100.00
5883;BME280;2967;51.488;6.618;2023-12-20T01:39:08;101259.66;;;9.23;100.00
5883;BME280;2967;51.488;6.618;2023-12-20T01:44:25;101294.72;;;9.42;100.00
5883;BME280;2967;51.488;6.618;2023-12-20T01:49:30;101288.75;;;9.38;100.00
5883;BME280;2967;51.488;6.618;2023-12-20T01:54:34;101287.59;;;9.27;100.00
5883;BME280;2967;51.488;6.618;2023-12-20T01:59:39;101305.41;;;9.23;100.00
5883;BME280;2967;51.488;6.618;2023-12-20T02:04:44;101299.81;;;9.12;100.00
5883;BME280;2967;51.488;6.618;2023-12-20T02:09:47;101156.78;;;8.55;100.00
5883;BME280;2967;51.488;6.618;2023-12-20T02:14:50;101293.50;;;9.15;100.00
5883;BME280;2967;51.488;6.618;2023-12-20T02:19:55;101297.78;;;8.83;100.00
5883;BME280;2967;51.488;6.618;2023-12-20T02:25:00;101302.19;;;8.83;100.00
5883;BME280;2967;51.488;6.618;2023-12-20T02:30:03;101275.22;;;8.59;100.00
5883;BME280;2967;51.488;6.618;2023-12-20T02:35:07;101184.22;;;7.98;100.00
5883;BME280;2967;51.488;6.618;2023-12-20T02:40:12;101307.28;;;8.69;100.00
5883;BME280;2967;51.488;6.618;2023-12-20T02:45:15;101303.06;;;8.65;100.00
5883;BME280;2967;51.488;6.618;2023-12-20T02:50:17;101275.06;;;8.45;100.00
5883;BME280;2967;51.488;6.618;2023-12-20T02:55:22;101295.66;;;8.73;100.00
5883;BME280;2967;51.488;6.618;2023-12-20T03:00:25;101307.94;;;8.55;100.00
5883;BME280;2967;51.488;6.618;2023-12-20T03:05:27;101272.56;;;8.42;100.00
5883;BME280;2967;51.488;6.618;2023-12-20T03:10:32;101295.69;;;8.54;100.00
5883;BME280;2967;51.488;6.618;2023-12-20T03:15:34;101264.06;;;8.17;100.00
5883;BME280;2967;51.488;6.618;2023-12-20T03:20:38;101291.56;;;8.49;100.00
5883;BME280;2967;51.488;6.618;2023-12-20T03:25:44;101287.00;;;8.15;100.00
5883;BME280;2967;51.488;6.618;2023-12-20T03:30:46;101290.91;;;8.27;100.00
5883;BME280;2967;51.488;6.618;2023-12-20T03:35:49;101255.41;;;7.97;100.00
5883;BME280;2967;51.488;6.618;2023-12-20T03:40:53;101293.66;;;8.42;100.00
5883;BME280;2967;51.488;6.618;2023-12-20T03:45:56;101241.94;;;8.03;100.00
5883;BME280;2967;51.488;6.618;2023-12-20T03:51:00;101237.44;;;8.05;100.00
5883;BME280;2967;51.488;6.618;2023-12-20T03:56:05;101245.78;;;8.14;100.00
5883;BME280;2967;51.488;6.618;2023-12-20T04:01:09;101232.50;;;7.99;100.00
5883;BME280;2967;51.488;6.618;2023-12-20T04:06:16;101273.78;;;8.17;100.00
5883;BME280;2967;51.488;6.618;2023-12-20T04:11:20;101274.22;;;8.26;100.00
5883;BME280;2967;51.488;6.618;2023-12-20T04:16:23;101279.00;;;8.37;100.00
5883;BME280;2967;51.488;6.618;2023-12-20T04:21:26;101273.63;;;8.38;100.00
5883;BME280;2967;51.488;6.618;2023-12-20T04:26:30;101276.34;;;8.37;100.00
5883;BME280;2967;51.488;6.618;2023-12-20T04:31:33;101165.47;;;7.69;100.00
5883;BME280;2967;51.488;6.618;2023-12-20T04:36:36;101287.75;;;8.37;100.00
5883;BME280;2967;51.488;6.618;2023-12-20T04:41:40;101234.13;;;7.83;100.00
5883;BME280;2967;51.488;6.618;2023-12-20T04:46:43;101287.47;;;8.25;100.00
5883;BME280;2967;51.488;6.618;2023-12-20T04:51:45;101283.88;;;8.26;100.00
5883;BME280;2967;51.488;6.618;2023-12-20T04:56:50;101280.25;;;8.10;100.00
5883;BME280;2967;51.488;6.618;2023-12-20T05:01:52;101259.34;;;8.07;100.00
5883;BME280;2967;51.488;6.618;2023-12-20T05:06:56;101241.72;;;7.70;100.00
5883;BME280;2967;51.488;6.618;2023-12-20T05:12:00;101286.91;;;8.18;100.00
5883;BME280;2967;51.488;6.618;2023-12-20T05:17:03;101276.63;;;8.12;100.00
5883;BME280;2967;51.488;6.618;2023-12-20T05:22:06;101262.38;;;7.79;100.00
5883;BME280;2967;51.488;6.618;2023-12-20T05:27:10;101274.34;;;7.86;100.00
5883;BME280;2967;51.488;6.618;2023-12-20T05:32:13;101260.97;;;8.28;100.00
5883;BME280;2967;51.488;6.618;2023-12-20T05:37:16;101250.22;;;7.95;100.00
5883;BME280;2967;51.488;6.618;2023-12-20T05:42:23;101266.69;;;8.19;100.00
5883;BME280;2967;51.488;6.618;2023-12-20T05:47:26;101177.53;;;7.73;100.00
5883;BME280;2967;51.488;6.618;2023-12-20T05:52:28;101252.63;;;8.18;100.00
5883;BME280;2967;51.488;6.618;2023-12-20T05:57:33;101254.56;;;8.50;100.00
5883;BME280;2967;51.488;6.618;2023-12-20T06:02:36;101200.88;;;7.99;100.00
5883;BME280;2967;51.488;6.618;2023-12-20T06:07:39;101220.31;;;7.96;100.00
5883;BME280;2967;51.488;6.618;2023-12-20T06:12:45;101264.06;;;8.19;100.00
5883;BME280;2967;51.488;6.618;2023-12-20T06:17:49;101214.75;;;7.84;100.00
5883;BME280;2967;51.488;6.618;2023-12-20T06:22:52;101280.00;;;8.51;100.00
5883;BME280;2967;51.488;6.618;2023-12-20T06:27:56;101257.91;;;8.18;100.00
5883;BME280;2967;51.488;6.618;2023-12-20T06:33:00;101274.34;;;8.05;100.00
5883;BME280;2967;51.488;6.618;2023-12-20T06:38:03;101271.31;;;8.32;100.00
5883;BME280;2967;51.488;6.618;2023-12-20T06:43:09;101214.09;;;7.97;100.00
5883;BME280;2967;51.488;6.618;2023-12-20T06:48:26;101045.28;;;6.96;100.00
5883;BME280;2967;51.488;6.618;2023-12-20T06:53:29;101257.16;;;8.52;100.00
5883;BME280;2967;51.488;6.618;2023-12-20T06:58:33;101039.41;;;7.26;100.00
5883;BME280;2967;51.488;6.618;2023-12-20T07:03:38;101225.34;;;8.38;100.00
5883;BME280;2967;51.488;6.618;2023-12-20T07:08:41;101257.63;;;8.60;100.00
5883;BME280;2967;51.488;6.618;2023-12-20T07:13:46;101225.03;;;8.44;100.00
5883;BME280;2967;51.488;6.618;2023-12-20T07:18:50;101237.88;;;8.33;100.00
5883;BME280;2967;51.488;6.618;2023-12-20T07:23:54;101279.88;;;8.54;100.00
5883;BME280;2967;51.488;6.618;2023-12-20T07:28:58;101179.91;;;8.14;100.00
5883;BME280;2967;51.488;6.618;2023-12-20T07:34:01;101269.06;;;8.42;100.00
5883;BME280;2967;51.488;6.618;2023-12-20T07:39:04;101234.25;;;8.17;100.00
5883;BME280;2967;51.488;6.618;2023-12-20T07:44:08;101222.66;;;8.21;100.00
5883;BME280;2967;51.488;6.618;2023-12-20T07:49:11;101266.78;;;8.70;100.00
5883;BME280;2967;51.488;6.618;2023-12-20T07:54:16;101290.09;;;8.79;100.00
5883;BME280;2967;51.488;6.618;2023-12-20T07:59:20;101203.97;;;8.61;100.00
5883;BME280;2967;51.488;6.618;2023-12-20T08:04:33;101175.72;;;8.29;100.00
5883;BME280;2967;51.488;6.618;2023-12-20T08:09:37;101261.78;;;8.82;100.00
5883;BME280;2967;51.488;6.618;2023-12-20T08:14:41;101260.22;;;8.95;100.00
5883;BME280;2967;51.488;6.618;2023-12-20T08:19:44;101269.38;;;8.88;100.00
5883;BME280;2967;51.488;6.618;2023-12-20T08:24:47;101262.44;;;8.86;100.00
5883;BME280;2967;51.488;6.618;2023-12-20T08:29:52;101264.44;;;8.64;100.00
5883;BME280;2967;51.488;6.618;2023-12-20T08:34:54;101221.47;;;8.45;100.00
5883;BME280;2967;51.488;6.618;2023-12-20T08:39:57;101274.09;;;8.82;100.00
5883;BME280;2967;51.488;6.618;2023-12-20T08:45:01;101288.28;;;8.79;100.00
5883;BME280;2967;51.488;6.618;2023-12-20T08:50:06;101143.81;;;7.81;100.00
5883;BME280;2967;51.488;6.618;2023-12-20T08:55:10;101234.41;;;8.49;100.00
5883;BME280;2967;51.488;6.618;2023-12-20T09:00:15;101273.88;;;8.86;100.00
5883;BME280;2967;51.488;6.618;2023-12-20T09:05:18;101271.13;;;8.71;100.00
5883;BME280;2967;51.488;6.618;2023-12-20T09:10:21;101272.09;;;8.87;100.00
5883;BME280;2967;51.488;6.618;2023-12-20T09:15:26;101239.03;;;8.80;100.00
5883;BME280;2967;51.488;6.618;2023-12-20T09:20:33;101177.81;;;8.56;100.00
5883;BME280;2967;51.488;6.618;2023-12-20T09:25:36;101262.69;;;8.64;100.00
5883;BME280;2967;51.488;6.618;2023-12-20T09:30:40;101251.28;;;8.81;100.00
5883;BME280;2967;51.488;6.618;2023-12-20T09:35:43;101170.59;;;8.43;100.00
5883;BME280;2967;51.488;6.618;2023-12-20T09:40:46;101263.47;;;9.00;100.00
5883;BME280;2967;51.488;6.618;2023-12-20T09:45:53;101263.53;;;8.82;100.00
5883;BME280;2967;51.488;6.618;2023-12-20T09:50:56;101264.94;;;8.72;100.00
5883;BME280;2967;51.488;6.618;2023-12-20T09:55:59;101260.50;;;8.89;100.00
5883;BME280;2967;51.488;6.618;2023-12-20T10:01:10;101252.94;;;8.83;100.00
5883;BME280;2967;51.488;6.618;2023-12-20T10:06:17;101232.72;;;8.48;100.00
5883;BME280;2967;51.488;6.618;2023-12-20T10:11:23;101223.66;;;8.71;100.00
5883;BME280;2967;51.488;6.618;2023-12-20T10:16:27;101218.56;;;8.68;100.00
5883;BME280;2967;51.488;6.618;2023-12-20T10:21:34;101248.31;;;9.04;100.00
5883;BME280;2967;51.488;6.618;2023-12-20T10:26:38;101229.13;;;9.34;100.00
5883;BME280;2967;51.488;6.618;2023-12-20T10:31:43;101237.22;;;9.95;100.00
5883;BME280;2967;51.488;6.618;2023-12-20T10:36:47;101248.44;;;10.31;100.00
5883;BME280;2967;51.488;6.618;2023-12-20T10:41:51;101212.28;;;10.16;100.00
5883;BME280;2967;51.488;6.618;2023-12-20T10:46:57;101197.25;;;9.70;100.00
5883;BME280;2967;51.488;6.618;2023-12-20T10:52:02;101225.09;;;9.60;100.00
5883;BME280;2967;51.488;6.618;2023-12-20T10:57:07;101245.59;;;9.55;100.00
5883;BME280;2967;51.488;6.618;2023-12-20T11:02:12;101240.75;;;9.30;100.00
5883;BME280;2967;51.488;6.618;2023-12-20T11:07:21;101214.00;;;9.38;100.00
5883;BME280;2967;51.488;6.618;2023-12-20T11:12:35;101231.28;;;9.43;100.00
5883;BME280;2967;51.488;6.618;2023-12-20T11:17:45;101214.38;;;9.30;100.00
5883;BME280;2967;51.488;6.618;2023-12-20T11:22:54;101204.84;;;9.28;100.00
5883;BME280;2967;51.488;6.618;2023-12-20T11:28:08;101184.44;;;9.47;100.00
5883;BME280;2967;51.488;6.618;2023-12-20T11:33:14;101176.00;;;9.56;100.00
5883;BME280;2967;51.488;6.618;2023-12-20T11:38:20;101165.53;;;9.39;100.00
5883;BME280;2967;51.488;6.618;2023-12-20T11:43:30;101182.66;;;9.47;100.00
5883;BME280;2967;51.488;6.618;2023-12-20T11:48:38;101191.59;;;9.60;100.00
5883;BME280;2967;51.488;6.618;2023-12-20T11:53:42;101189.22;;;9.56;100.00
5883;BME280;2967;51.488;6.618;2023-12-20T11:58:45;101113.66;;;9.38;100.00
5883;BME280;2967;51.488;6.618;2023-12-20T12:04:03;101182.94;;;9.74;100.00
5883;BME280;2967;51.488;6.618;2023-12-20T12:09:06;101137.75;;;9.47;100.00
5883;BME280;2967;51.488;6.618;2023-12-20T12:14:09;101167.75;;;9.62;100.00
5883;BME280;2967;51.488;6.618;2023-12-20T12:19:24;101171.78;;;9.53;100.00
5883;BME280;2967;51.488;6.618;2023-12-20T12:24:27;101095.81;;;9.10;100.00
5883;BME280;2967;51.488;6.618;2023-12-20T12:29:30;101181.03;;;9.60;100.00
5883;BME280;2967;51.488;6.618;2023-12-20T12:34:35;101101.47;;;9.20;100.00
5883;BME280;2967;51.488;6.618;2023-12-20T12:39:40;101087.50;;;9.18;100.00
5883;BME280;2967;51.488;6.618;2023-12-20T12:44:43;101108.22;;;9.41;100.00
5883;BME280;2967;51.488;6.618;2023-12-20T12:49:47;101128.47;;;9.40;100.00
5883;BME280;2967;51.488;6.618;2023-12-20T12:54:52;101091.03;;;9.17;100.00
5883;BME280;2967;51.488;6.618;2023-12-20T12:59:55;101133.50;;;9.45;100.00
5883;BME280;2967;51.488;6.618;2023-12-20T13:05:01;101130.59;;;9.34;100.00
5883;BME280;2967;51.488;6.618;2023-12-20T13:10:06;101038.56;;;8.80;100.00
5883;BME280;2967;51.488;6.618;2023-12-20T13:15:12;101043.94;;;8.61;100.00
5883;BME280;2967;51.488;6.618;2023-12-20T13:20:16;101086.28;;;9.08;100.00
5883;BME280;2967;51.488;6.618;2023-12-20T13:25:19;101098.47;;;9.26;100.00
5883;BME280;2967;51.488;6.618;2023-12-20T13:30:23;101093.56;;;9.35;100.00
5883;BME280;2967;51.488;6.618;2023-12-20T13:35:27;101081.34;;;9.17;100.00
5883;BME280;2967;51.488;6.618;2023-12-20T13:40:29;101085.13;;;9.29;100.00
5883;BME280;2967;51.488;6.618;2023-12-20T13:45:32;101044.22;;;9.20;100.00
5883;BME280;2967;51.488;6.618;2023-12-20T13:50:36;101069.53;;;9.40;100.00
5883;BME280;2967;51.488;6.618;2023-12-20T13:55:39;101073.81;;;9.58;100.00
5883;BME280;2967;51.488;6.618;2023-12-20T14:00:42;101038.34;;;10.07;100.00
5883;BME280;2967;51.488;6.618;2023-12-20T14:05:47;100970.84;;;9.27;100.00
5883;BME280;2967;51.488;6.618;2023-12-20T14:10:50;101046.22;;;10.08;100.00
5883;BME280;2967;51.488;6.618;2023-12-20T14:15:53;101008.03;;;9.69;100.00
5883;BME280;2967;51.488;6.618;2023-12-20T14:20:57;101049.66;;;9.79;100.00
5883;BME280;2967;51.488;6.618;2023-12-20T14:26:00;101028.81;;;9.13;100.00
5883;BME280;2967;51.488;6.618;2023-12-20T14:31:04;101050.63;;;9.32;100.00
5883;BME280;2967;51.488;6.618;2023-12-20T14:36:09;100956.72;;;8.81;100.00
5883;BME280;2967;51.488;6.618;2023-12-20T14:41:12;100959.44;;;8.80;100.00
5883;BME280;2967;51.488;6.618;2023-12-20T14:46:15;101074.75;;;9.72;100.00
5883;BME280;2967;51.488;6.618;2023-12-20T14:51:20;100977.28;;;8.75;100.00
5883;BME280;2967;51.488;6.618;2023-12-20T14:56:23;100930.47;;;8.47;100.00
5883;BME280;2967;51.488;6.618;2023-12-20T15:01:27;101020.41;;;9.22;100.00
5883;BME280;2967;51.488;6.618;2023-12-20T15:06:35;101053.03;;;9.36;100.00
5883;BME280;2967;51.488;6.618;2023-12-20T15:11:38;100910.97;;;8.67;100.00
5883;BME280;2967;51.488;6.618;2023-12-20T15:16:41;100966.88;;;9.20;100.00
5883;BME280;2967;51.488;6.618;2023-12-20T15:21:45;101043.56;;;9.48;100.00
5883;BME280;2967;51.488;6.618;2023-12-20T15:27:00;101050.66;;;9.77;100.00
5883;BME280;2967;51.488;6.618;2023-12-20T15:32:05;100948.38;;;9.20;100.00
5883;BME280;2967;51.488;6.618;2023-12-20T15:37:10;100980.22;;;9.32;100.00
5883;BME280;2967;51.488;6.618;2023-12-20T15:42:13;101037.50;;;9.46;100.00
5883;BME280;2967;51.488;6.618;2023-12-20T15:47:16;100825.03;;;8.32;100.00
5883;BME280;2967;51.488;6.618;2023-12-20T15:52:23;100718.16;;;7.80;100.00
5883;BME280;2967;51.488;6.618;2023-12-20T15:57:31;101040.56;;;9.38;100.00
5883;BME280;2967;51.488;6.618;2023-12-20T16:02:55;100993.06;;;9.38;100.00
5883;BME280;2967;51.488;6.618;2023-12-20T16:08:05;100917.25;;;9.11;100.00
5883;BME280;2967;51.488;6.618;2023-12-20T16:13:34;101011.41;;;9.71;100.00
5883;BME280;2967;51.488;6.618;2023-12-20T16:18:39;100859.06;;;8.67;100.00
5883;BME280;2967;51.488;6.618;2023-12-20T16:23:47;100880.91;;;9.00;100.00
5883;BME280;2967;51.488;6.618;2023-12-20T16:28:50;100911.88;;;9.12;100.00
5883;BME280;2967;51.488;6.618;2023-12-20T16:33:53;100749.72;;;8.12;100.00
5883;BME280;2967;51.488;6.618;2023-12-20T16:38:58;100993.03;;;9.54;100.00
5883;BME280;2967;51.488;6.618;2023-12-20T16:44:01;100913.94;;;8.92;100.00
5883;BME280;2967;51.488;6.618;2023-12-20T16:49:06;100980.03;;;9.35;100.00
5883;BME280;2967;51.488;6.618;2023-12-20T16:54:10;100976.78;;;9.46;100.00
5883;BME280;2967;51.488;6.618;2023-12-20T16:59:14;100958.25;;;9.32;100.00
5883;BME280;2967;51.488;6.618;2023-12-20T17:04:17;100889.69;;;8.85;100.00
5883;BME280;2967;51.488;6.618;2023-12-20T17:09:24;100959.09;;;9.17;100.00
5883;BME280;2967;51.488;6.618;2023-12-20T17:14:32;100945.81;;;9.18;100.00
5883;BME280;2967;51.488;6.618;2023-12-20T17:19:36;100884.03;;;8.91;100.00
5883;BME280;2967;51.488;6.618;2023-12-20T17:24:41;100930.44;;;9.11;100.00
5883;BME280;2967;51.488;6.618;2023-12-20T17:29:44;100881.69;;;8.87;100.00
5883;BME280;2967;51.488;6.618;2023-12-20T17:34:49;100902.25;;;9.11;100.00
5883;BME280;2967;51.488;6.618;2023-12-20T17:39:53;100893.03;;;9.18;100.00
5883;BME280;2967;51.488;6.618;2023-12-20T17:44:58;100880.06;;;9.29;100.00
5883;BME280;2967;51.488;6.618;2023-12-20T17:50:01;100861.47;;;9.01;100.00
5883;BME280;2967;51.488;6.618;2023-12-20T17:55:08;100896.94;;;9.27;100.00
5883;BME280;2967;51.488;6.618;2023-12-20T18:00:12;100870.72;;;9.24;100.00
5883;BME280;2967;51.488;6.618;2023-12-20T18:05:15;100871.63;;;9.38;100.00
5883;BME280;2967;51.488;6.618;2023-12-20T18:10:20;100867.72;;;9.59;100.00
5883;BME280;2967;51.488;6.618;2023-12-20T18:15:23;100845.91;;;9.56;100.00
5883;BME280;2967;51.488;6.618;2023-12-20T18:20:28;100869.72;;;9.70;100.00
5883;BME280;2967;51.488;6.618;2023-12-20T18:25:32;100842.25;;;9.44;100.00
5883;BME280;2967;51.488;6.618;2023-12-20T18:30:36;100822.91;;;9.44;100.00
5883;BME280;2967;51.488;6.618;2023-12-20T18:35:41;100646.59;;;8.34;100.00
5883;BME280;2967;51.488;6.618;2023-12-20T18:40:46;100832.75;;;9.70;100.00
5883;BME280;2967;51.488;6.618;2023-12-20T18:45:49;100810.28;;;9.63;100.00
5883;BME280;2967;51.488;6.618;2023-12-20T18:50:52;100740.25;;;9.00;100.00
5883;BME280;2967;51.488;6.618;2023-12-20T18:55:57;100792.06;;;9.44;100.00
5883;BME280;2967;51.488;6.618;2023-12-20T19:00:59;100802.09;;;9.53;100.00
5883;BME280;2967;51.488;6.618;2023-12-20T19:06:03;100763.22;;;9.69;100.00
5883;BME280;2967;51.488;6.618;2023-12-20T19:11:08;100717.69;;;9.38;100.00
5883;BME280;2967;51.488;6.618;2023-12-20T19:16:11;100794.72;;;10.00;100.00
5883;BME280;2967;51.488;6.618;2023-12-20T19:21:14;100771.63;;;9.90;100.00
5883;BME280;2967;51.488;6.618;2023-12-20T19:26:18;100628.13;;;9.21;100.00
5883;BME280;2967;51.488;6.618;2023-12-20T19:31:21;100756.25;;;10.10;100.00
5883;BME280;2967;51.488;6.618;2023-12-20T19:36:23;100746.19;;;10.29;100.00
5883;BME280;2967;51.488;6.618;2023-12-20T19:41:31;100761.56;;;10.37;100.00
5883;BME280;2967;51.488;6.618;2023-12-20T19:46:34;100755.78;;;10.18;100.00
5883;BME280;2967;51.488;6.618;2023-12-20T19:51:37;100754.47;;;10.11;100.00
5883;BME280;2967;51.488;6.618;2023-12-20T19:56:41;100698.97;;;9.83;100.00
5883;BME280;2967;51.488;6.618;2023-12-20T20:01:44;100692.78;;;9.70;100.00
5883;BME280;2967;51.488;6.618;2023-12-20T20:06:48;100716.16;;;10.30;100.00
5883;BME280;2967;51.488;6.618;2023-12-20T20:11:54;100706.13;;;9.95;100.00
5883;BME280;2967;51.488;6.618;2023-12-20T20:17:00;100720.84;;;10.13;100.00
5883;BME280;2967;51.488;6.618;2023-12-20T20:22:04;100639.13;;;9.55;100.00
5883;BME280;2967;51.488;6.618;2023-12-20T20:27:08;100691.69;;;10.14;100.00
5883;BME280;2967;51.488;6.618;2023-12-20T20:32:11;100630.91;;;9.60;100.00
5883;BME280;2967;51.488;6.618;2023-12-20T20:37:14;100576.47;;;9.17;100.00
5883;BME280;2967;51.488;6.618;2023-12-20T20:42:18;100601.41;;;9.53;100.00
5883;BME280;2967;51.488;6.618;2023-12-20T20:47:23;100677.88;;;10.23;100.00
5883;BME280;2967;51.488;6.618;2023-12-20T20:52:26;100680.53;;;10.36;100.00
5883;BME280;2967;51.488;6.618;2023-12-20T20:57:30;100619.66;;;9.97;100.00
5883;BME280;2967;51.488;6.618;2023-12-20T21:02:37;100505.69;;;9.23;100.00
5883;BME280;2967;51.488;6.618;2023-12-20T21:07:40;100663.78;;;10.23;100.00
5883;BME280;2967;51.488;6.618;2023-12-20T21:12:48;100593.38;;;9.69;100.00
5883;BME280;2967;51.488;6.618;2023-12-20T21:17:52;100618.78;;;9.84;100.00
5883;BME280;2967;51.488;6.618;2023-12-20T21:22:55;100643.59;;;9.81;100.00
5883;BME280;2967;51.488;6.618;2023-12-20T21:28:01;100580.66;;;9.88;100.00
5883;BME280;2967;51.488;6.618;2023-12-20T21:33:04;100597.09;;;9.79;100.00
5883;BME280;2967;51.488;6.618;2023-12-20T21:38:08;100623.63;;;10.30;100.00
5883;BME280;2967;51.488;6.618;2023-12-20T21:43:13;100538.84;;;9.68;100.00
5883;BME280;2967;51.488;6.618;2023-12-20T21:48:16;100618.09;;;9.94;100.00
5883;BME280;2967;51.488;6.618;2023-12-20T21:53:19;100542.03;;;9.73;100.00
5883;BME280;2967;51.488;6.618;2023-12-20T21:58:23;100606.16;;;10.15;100.00
5883;BME280;2967;51.488;6.618;2023-12-20T22:03:26;100586.91;;;10.13;100.00
5883;BME280;2967;51.488;6.618;2023-12-20T22:08:32;100526.91;;;9.75;100.00
5883;BME280;2967;51.488;6.618;2023-12-20T22:13:36;100525.19;;;9.88;100.00
5883;BME280;2967;51.488;6.618;2023-12-20T22:18:39;100578.13;;;10.13;100.00
5883;BME280;2967;51.488;6.618;2023-12-20T22:23:42;100512.75;;;9.76;100.00
5883;BME280;2967;51.488;6.618;2023-12-20T22:28:46;100572.84;;;10.13;100.00
5883;BME280;2967;51.488;6.618;2023-12-20T22:33:49;100585.97;;;10.14;100.00
5883;BME280;2967;51.488;6.618;2023-12-20T22:38:52;100582.19;;;10.31;100.00
5883;BME280;2967;51.488;6.618;2023-12-20T22:43:56;100489.22;;;9.73;100.00
5883;BME280;2967;51.488;6.618;2023-12-20T22:49:00;100582.72;;;10.23;100.00
5883;BME280;2967;51.488;6.618;2023-12-20T22:54:03;100565.72;;;10.40;100.00
5883;BME280;2967;51.488;6.618;2023-12-20T22:59:07;100555.47;;;10.35;100.00
5883;BME280;2967;51.488;6.618;2023-12-20T23:04:14;100509.81;;;10.07;100.00
5883;BME280;2967;51.488;6.618;2023-12-20T23:09:17;100462.06;;;10.10;100.00
5883;BME280;2967;51.488;6.618;2023-12-20T23:14:21;100317.94;;;9.03;100.00
5883;BME280;2967;51.488;6.618;2023-12-20T23:19:28;100132.66;;;8.09;100.00
5883;BME280;2967;51.488;6.618;2023-12-20T23:24:31;100528.91;;;10.37;100.00
5883;BME280;2967;51.488;6.618;2023-12-20T23:29:35;100488.72;;;10.32;100.00
5883;BME280;2967;51.488;6.618;2023-12-20T23:34:38;100441.22;;;10.05;100.00
5883;BME280;2967;51.488;6.618;2023-12-20T23:39:44;100504.47;;;10.58;100.00
5883;BME280;2967;51.488;6.618;2023-12-20T23:44:49;100482.25;;;10.36;100.00
5883;BME280;2967;51.488;6.618;2023-12-20T23:49:52;100458.06;;;10.42;100.00
5883;BME280;2967;51.488;6.618;2023-12-20T23:54:55;100456.56;;;10.50;100.00
5883;BME280;2967;51.488;6.618;2023-12-20T23:59:59;100438.78;;;10.52;100.00
